sensor_id;sensor_type;location;lat;lon;timestamp;temperature;humidity
152;DHT22;68;48.792;9.164;2022-10-26T00:02:03;13.90;85.50
152;DHT22;68;48.792;9.164;2022-10-26T00:04:30;13.80;85.60
152;DHT22;68;48.792;9.164;2022-10-26T00:06:57;13.70;85.20
152;DHT22;68;48.792;9.164;2022-10-26T00:09:24;13.60;86.90
152;DHT22;68;48.792;9.164;2022-10-26T00:11:51;13.70;85.80
152;DHT22;68;48.792;9.164;2022-10-26T00:14:18;13.70;86.20
152;DHT22;68;48.792;9.164;2022-10-26T00:16:46;13.90;86.80
152;DHT22;68;48.792;9.164;2022-10-26T00:19:13;13.80;87.70
152;DHT22;68;48.792;9.164;2022-10-26T00:21:39;13.70;88.30
152;DHT22;68;48.792;9.164;2022-10-26T00:24:06;13.70;88.80
152;DHT22;68;48.792;9.164;2022-10-26T00:26:33;13.80;89.00
152;DHT22;68;48.792;9.164;2022-10-26T00:29:00;13.90;88.50
152;DHT22;68;48.792;9.164;2022-10-26T00:31:26;14.00;89.20
152;DHT22;68;48.792;9.164;2022-10-26T00:33:55;13.80;91.40
152;DHT22;68;48.792;9.164;2022-10-26T00:36:23;13.80;90.90
152;DHT22;68;48.792;9.164;2022-10-26T00:38:51;14.00;90.40
152;DHT22;68;48.792;9.164;2022-10-26T00:41:20;14.10;90.50
152;DHT22;68;48.792;9.164;2022-10-26T00:43:47;14.10;91.30
152;DHT22;68;48.792;9.164;2022-10-26T00:46:17;14.40;92.40
152;DHT22;68;48.792;9.164;2022-10-26T00:48:49;14.40;92.20
152;DHT22;68;48.792;9.164;2022-10-26T00:51:22;14.20;92.80
152;DHT22;68;48.792;9.164;2022-10-26T00:53:50;14.00;92.70
152;DHT22;68;48.792;9.164;2022-10-26T00:56:17;13.90;91.90
152;DHT22;68;48.792;9.164;2022-10-26T00:58:44;13.90;91.20
152;DHT22;68;48.792;9.164;2022-10-26T01:01:12;14.00;90.50
152;DHT22;68;48.792;9.164;2022-10-26T01:03:39;14.10;90.60
152;DHT22;68;48.792;9.164;2022-10-26T01:06:07;14.00;90.00
152;DHT22;68;48.792;9.164;2022-10-26T01:08:36;13.80;90.20
152;DHT22;68;48.792;9.164;2022-10-26T01:11:03;13.80;88.40
152;DHT22;68;48.792;9.164;2022-10-26T01:13:32;14.10;90.10
152;DHT22;68;48.792;9.164;2022-10-26T01:16:11;14.00;89.90
152;DHT22;68;48.792;9.164;2022-10-26T01:18:46;13.90;89.20
152;DHT22;68;48.792;9.164;2022-10-26T01:21:38;13.90;88.30
152;DHT22;68;48.792;9.164;2022-10-26T01:24:22;14.00;89.80
152;DHT22;68;48.792;9.164;2022-10-26T01:27:11;14.00;90.60
152;DHT22;68;48.792;9.164;2022-10-26T01:32:58;14.20;93.00
152;DHT22;68;48.792;9.164;2022-10-26T01:35:28;14.50;93.70
152;DHT22;68;48.792;9.164;2022-10-26T01:38:03;14.50;94.20
152;DHT22;68;48.792;9.164;2022-10-26T01:40:35;14.50;94.90
152;DHT22;68;48.792;9.164;2022-10-26T01:43:07;14.20;93.80
152;DHT22;68;48.792;9.164;2022-10-26T01:45:37;13.80;92.90
152;DHT22;68;48.792;9.164;2022-10-26T01:48:08;13.80;91.10
152;DHT22;68;48.792;9.164;2022-10-26T01:50:35;13.90;89.50
152;DHT22;68;48.792;9.164;2022-10-26T01:53:02;14.00;85.80
152;DHT22;68;48.792;9.164;2022-10-26T01:55:39;14.10;86.10
152;DHT22;68;48.792;9.164;2022-10-26T01:58:16;14.30;87.80
152;DHT22;68;48.792;9.164;2022-10-26T02:00:53;14.50;88.40
152;DHT22;68;48.792;9.164;2022-10-26T02:03:30;14.10;88.30
152;DHT22;68;48.792;9.164;2022-10-26T02:06:06;13.80;85.20
152;DHT22;68;48.792;9.164;2022-10-26T02:08:52;13.70;80.00
152;DHT22;68;48.792;9.164;2022-10-26T02:11:29;13.90;73.60
152;DHT22;68;48.792;9.164;2022-10-26T02:14:07;14.00;76.30
152;DHT22;68;48.792;9.164;2022-10-26T02:16:39;13.90;75.00
152;DHT22;68;48.792;9.164;2022-10-26T02:19:15;13.80;72.10
152;DHT22;68;48.792;9.164;2022-10-26T02:21:47;13.80;69.80
152;DHT22;68;48.792;9.164;2022-10-26T02:24:16;13.80;71.50
152;DHT22;68;48.792;9.164;2022-10-26T02:26:46;13.80;70.00
152;DHT22;68;48.792;9.164;2022-10-26T02:29:16;13.50;72.20
152;DHT22;68;48.792;9.164;2022-10-26T02:31:45;13.20;70.60
152;DHT22;68;48.792;9.164;2022-10-26T02:34:18;13.10;67.20
152;DHT22;68;48.792;9.164;2022-10-26T02:36:49;13.00;61.00
152;DHT22;68;48.792;9.164;2022-10-26T02:39:19;13.00;54.80
152;DHT22;68;48.792;9.164;2022-10-26T02:41:47;12.90;49.90
152;DHT22;68;48.792;9.164;2022-10-26T02:44:19;12.90;46.90
152;DHT22;68;48.792;9.164;2022-10-26T02:46:48;12.90;42.40
152;DHT22;68;48.792;9.164;2022-10-26T02:49:17;12.90;41.70
152;DHT22;68;48.792;9.164;2022-10-26T02:51:46;12.90;40.90
152;DHT22;68;48.792;9.164;2022-10-26T02:54:21;12.90;38.30
152;DHT22;68;48.792;9.164;2022-10-26T02:56:53;12.80;37.20
152;DHT22;68;48.792;9.164;2022-10-26T02:59:22;12.90;36.90
152;DHT22;68;48.792;9.164;2022-10-26T03:01:51;12.90;39.10
152;DHT22;68;48.792;9.164;2022-10-26T03:04:20;12.90;40.60
152;DHT22;68;48.792;9.164;2022-10-26T03:06:53;13.00;42.00
152;DHT22;68;48.792;9.164;2022-10-26T03:09:20;12.90;42.10
152;DHT22;68;48.792;9.164;2022-10-26T03:11:47;12.70;44.20
152;DHT22;68;48.792;9.164;2022-10-26T03:14:14;12.70;41.00
152;DHT22;68;48.792;9.164;2022-10-26T03:16:41;12.70;38.40
152;DHT22;68;48.792;9.164;2022-10-26T03:19:07;12.70;38.30
152;DHT22;68;48.792;9.164;2022-10-26T03:21:36;12.60;38.40
152;DHT22;68;48.792;9.164;2022-10-26T03:24:03;12.70;38.10
152;DHT22;68;48.792;9.164;2022-10-26T03:26:29;12.80;36.60
152;DHT22;68;48.792;9.164;2022-10-26T03:28:56;12.90;36.70
152;DHT22;68;48.792;9.164;2022-10-26T03:31:23;13.00;34.10
152;DHT22;68;48.792;9.164;2022-10-26T03:33:50;12.90;36.00
152;DHT22;68;48.792;9.164;2022-10-26T03:36:16;12.70;41.30
152;DHT22;68;48.792;9.164;2022-10-26T03:38:45;13.00;37.40
152;DHT22;68;48.792;9.164;2022-10-26T03:41:11;13.10;40.60
152;DHT22;68;48.792;9.164;2022-10-26T03:43:38;13.20;42.60
152;DHT22;68;48.792;9.164;2022-10-26T03:46:05;13.10;43.10
152;DHT22;68;48.792;9.164;2022-10-26T03:48:31;13.30;43.70
152;DHT22;68;48.792;9.164;2022-10-26T03:50:58;13.40;46.50
152;DHT22;68;48.792;9.164;2022-10-26T03:53:25;13.50;48.70
152;DHT22;68;48.792;9.164;2022-10-26T03:55:53;13.50;54.10
152;DHT22;68;48.792;9.164;2022-10-26T03:58:20;13.60;58.20
152;DHT22;68;48.792;9.164;2022-10-26T04:00:47;13.80;62.50
152;DHT22;68;48.792;9.164;2022-10-26T04:03:14;13.60;70.70
152;DHT22;68;48.792;9.164;2022-10-26T04:05:40;13.60;70.80
152;DHT22;68;48.792;9.164;2022-10-26T04:08:07;13.50;66.70
152;DHT22;68;48.792;9.164;2022-10-26T04:10:34;13.70;64.50
152;DHT22;68;48.792;9.164;2022-10-26T04:13:02;13.40;74.70
152;DHT22;68;48.792;9.164;2022-10-26T04:15:30;13.50;71.70
152;DHT22;68;48.792;9.164;2022-10-26T04:17:57;13.40;67.90
152;DHT22;68;48.792;9.164;2022-10-26T04:20:25;13.50;66.70
152;DHT22;68;48.792;9.164;2022-10-26T04:22:59;13.60;68.60
152;DHT22;68;48.792;9.164;2022-10-26T04:25:26;13.60;73.20
152;DHT22;68;48.792;9.164;2022-10-26T04:27:52;13.60;73.70
152;DHT22;68;48.792;9.164;2022-10-26T04:30:21;13.80;74.30
152;DHT22;68;48.792;9.164;2022-10-26T04:32:48;13.90;76.80
152;DHT22;68;48.792;9.164;2022-10-26T04:35:15;14.10;79.00
152;DHT22;68;48.792;9.164;2022-10-26T04:37:41;14.20;83.30
152;DHT22;68;48.792;9.164;2022-10-26T04:40:09;14.20;84.30
152;DHT22;68;48.792;9.164;2022-10-26T04:42:43;14.20;84.20
152;DHT22;68;48.792;9.164;2022-10-26T04:45:10;14.10;85.50
152;DHT22;68;48.792;9.164;2022-10-26T04:47:39;14.00;82.20
152;DHT22;68;48.792;9.164;2022-10-26T04:50:07;14.00;79.90
152;DHT22;68;48.792;9.164;2022-10-26T04:52:34;13.90;78.00
152;DHT22;68;48.792;9.164;2022-10-26T04:55:01;14.00;75.60
152;DHT22;68;48.792;9.164;2022-10-26T04:57:30;14.00;75.20
152;DHT22;68;48.792;9.164;2022-10-26T04:59:57;14.10;76.30
152;DHT22;68;48.792;9.164;2022-10-26T05:02:24;14.10;76.30
152;DHT22;68;48.792;9.164;2022-10-26T05:04:52;14.20;78.20
152;DHT22;68;48.792;9.164;2022-10-26T05:07:19;14.40;79.50
152;DHT22;68;48.792;9.164;2022-10-26T05:09:46;14.40;81.20
152;DHT22;68;48.792;9.164;2022-10-26T05:12:12;14.50;82.50
152;DHT22;68;48.792;9.164;2022-10-26T05:14:39;14.10;78.90
152;DHT22;68;48.792;9.164;2022-10-26T05:17:06;14.00;77.10
152;DHT22;68;48.792;9.164;2022-10-26T05:19:33;13.90;72.90
152;DHT22;68;48.792;9.164;2022-10-26T05:22:01;13.90;69.70
152;DHT22;68;48.792;9.164;2022-10-26T05:24:27;13.90;68.90
152;DHT22;68;48.792;9.164;2022-10-26T05:26:54;13.80;66.90
152;DHT22;68;48.792;9.164;2022-10-26T05:29:21;14.00;66.90
152;DHT22;68;48.792;9.164;2022-10-26T05:31:48;14.20;66.10
152;DHT22;68;48.792;9.164;2022-10-26T05:34:14;14.30;70.80
152;DHT22;68;48.792;9.164;2022-10-26T05:36:41;14.40;74.60
152;DHT22;68;48.792;9.164;2022-10-26T05:39:09;14.40;75.90
152;DHT22;68;48.792;9.164;2022-10-26T05:41:36;14.40;79.30
152;DHT22;68;48.792;9.164;2022-10-26T05:44:03;14.50;79.60
152;DHT22;68;48.792;9.164;2022-10-26T05:46:29;14.50;82.50
152;DHT22;68;48.792;9.164;2022-10-26T05:48:57;14.50;81.70
152;DHT22;68;48.792;9.164;2022-10-26T05:51:24;14.50;82.90
152;DHT22;68;48.792;9.164;2022-10-26T05:53:51;14.30;83.50
152;DHT22;68;48.792;9.164;2022-10-26T05:56:32;14.30;83.40
152;DHT22;68;48.792;9.164;2022-10-26T05:59:00;14.30;83.00
152;DHT22;68;48.792;9.164;2022-10-26T06:01:33;14.40;81.60
152;DHT22;68;48.792;9.164;2022-10-26T06:04:14;14.40;83.40
152;DHT22;68;48.792;9.164;2022-10-26T06:06:47;14.40;84.20
152;DHT22;68;48.792;9.164;2022-10-26T06:09:17;14.60;84.10
152;DHT22;68;48.792;9.164;2022-10-26T06:11:46;14.60;84.80
152;DHT22;68;48.792;9.164;2022-10-26T06:14:13;14.50;84.70
152;DHT22;68;48.792;9.164;2022-10-26T06:16:49;14.70;85.30
152;DHT22;68;48.792;9.164;2022-10-26T06:19:25;14.70;86.40
152;DHT22;68;48.792;9.164;2022-10-26T06:22:02;14.50;87.00
152;DHT22;68;48.792;9.164;2022-10-26T06:24:37;14.40;84.20
152;DHT22;68;48.792;9.164;2022-10-26T06:27:15;14.40;82.90
152;DHT22;68;48.792;9.164;2022-10-26T06:29:49;14.50;82.00
152;DHT22;68;48.792;9.164;2022-10-26T06:32:21;14.50;83.50
152;DHT22;68;48.792;9.164;2022-10-26T06:34:52;14.30;81.10
152;DHT22;68;48.792;9.164;2022-10-26T06:37:21;14.30;78.40
152;DHT22;68;48.792;9.164;2022-10-26T06:39:49;14.40;78.00
152;DHT22;68;48.792;9.164;2022-10-26T06:42:18;14.20;80.40
152;DHT22;68;48.792;9.164;2022-10-26T06:44:46;14.40;79.50
152;DHT22;68;48.792;9.164;2022-10-26T06:47:19;14.60;79.20
152;DHT22;68;48.792;9.164;2022-10-26T06:49:56;14.60;83.20
152;DHT22;68;48.792;9.164;2022-10-26T06:52:31;14.60;83.80
152;DHT22;68;48.792;9.164;2022-10-26T06:54:59;14.60;83.30
152;DHT22;68;48.792;9.164;2022-10-26T06:57:32;14.60;82.00
152;DHT22;68;48.792;9.164;2022-10-26T07:00:04;14.60;81.40
152;DHT22;68;48.792;9.164;2022-10-26T07:02:31;14.60;79.10
152;DHT22;68;48.792;9.164;2022-10-26T07:04:58;14.60;78.50
152;DHT22;68;48.792;9.164;2022-10-26T07:07:28;14.70;78.80
152;DHT22;68;48.792;9.164;2022-10-26T07:09:55;14.90;80.60
152;DHT22;68;48.792;9.164;2022-10-26T07:12:22;15.00;82.70
152;DHT22;68;48.792;9.164;2022-10-26T07:14:50;15.10;83.90
152;DHT22;68;48.792;9.164;2022-10-26T07:17:17;15.10;83.70
152;DHT22;68;48.792;9.164;2022-10-26T07:19:43;15.00;83.00
152;DHT22;68;48.792;9.164;2022-10-26T07:22:10;14.90;82.90
152;DHT22;68;48.792;9.164;2022-10-26T07:24:37;15.00;81.40
152;DHT22;68;48.792;9.164;2022-10-26T07:27:04;14.90;81.50
152;DHT22;68;48.792;9.164;2022-10-26T07:29:30;14.90;81.50
152;DHT22;68;48.792;9.164;2022-10-26T07:32:01;15.00;81.00
152;DHT22;68;48.792;9.164;2022-10-26T07:34:27;15.20;82.50
152;DHT22;68;48.792;9.164;2022-10-26T07:36:54;15.30;84.50
152;DHT22;68;48.792;9.164;2022-10-26T07:39:21;15.40;87.00
152;DHT22;68;48.792;9.164;2022-10-26T07:41:48;15.40;89.60
152;DHT22;68;48.792;9.164;2022-10-26T07:44:14;15.40;88.40
152;DHT22;68;48.792;9.164;2022-10-26T07:46:41;15.30;84.90
152;DHT22;68;48.792;9.164;2022-10-26T07:49:09;15.20;85.40
152;DHT22;68;48.792;9.164;2022-10-26T07:51:36;15.20;85.50
152;DHT22;68;48.792;9.164;2022-10-26T07:54:03;15.20;84.90
152;DHT22;68;48.792;9.164;2022-10-26T07:56:30;15.30;87.20
152;DHT22;68;48.792;9.164;2022-10-26T07:58:56;15.50;86.80
152;DHT22;68;48.792;9.164;2022-10-26T08:01:23;15.60;88.10
152;DHT22;68;48.792;9.164;2022-10-26T08:03:51;15.60;89.50
152;DHT22;68;48.792;9.164;2022-10-26T08:06:20;15.60;90.10
152;DHT22;68;48.792;9.164;2022-10-26T08:08:47;15.80;91.50
152;DHT22;68;48.792;9.164;2022-10-26T08:11:15;15.90;92.10
152;DHT22;68;48.792;9.164;2022-10-26T08:13:42;16.00;92.90
152;DHT22;68;48.792;9.164;2022-10-26T08:16:09;16.10;94.00
152;DHT22;68;48.792;9.164;2022-10-26T08:18:35;16.10;93.70
152;DHT22;68;48.792;9.164;2022-10-26T08:21:04;16.20;94.70
152;DHT22;68;48.792;9.164;2022-10-26T08:23:32;16.20;94.90
152;DHT22;68;48.792;9.164;2022-10-26T08:25:59;16.30;94.60
152;DHT22;68;48.792;9.164;2022-10-26T08:28:27;16.20;93.90
152;DHT22;68;48.792;9.164;2022-10-26T08:30:54;16.30;93.50
152;DHT22;68;48.792;9.164;2022-10-26T08:33:22;16.40;94.30
152;DHT22;68;48.792;9.164;2022-10-26T08:35:54;16.40;94.20
152;DHT22;68;48.792;9.164;2022-10-26T08:38:21;16.30;93.70
152;DHT22;68;48.792;9.164;2022-10-26T08:40:49;16.20;94.30
152;DHT22;68;48.792;9.164;2022-10-26T08:43:19;16.40;94.60
152;DHT22;68;48.792;9.164;2022-10-26T08:45:50;16.60;94.90
152;DHT22;68;48.792;9.164;2022-10-26T08:48:22;16.60;94.90
152;DHT22;68;48.792;9.164;2022-10-26T08:50:52;16.70;95.00
152;DHT22;68;48.792;9.164;2022-10-26T08:53:24;16.50;95.20
152;DHT22;68;48.792;9.164;2022-10-26T08:55:59;16.70;95.20
152;DHT22;68;48.792;9.164;2022-10-26T08:58:32;16.60;95.00
152;DHT22;68;48.792;9.164;2022-10-26T09:01:02;16.80;94.80
152;DHT22;68;48.792;9.164;2022-10-26T09:03:30;16.90;94.80
152;DHT22;68;48.792;9.164;2022-10-26T09:06:06;17.10;95.00
152;DHT22;68;48.792;9.164;2022-10-26T09:08:40;17.00;94.70
152;DHT22;68;48.792;9.164;2022-10-26T09:11:19;17.20;94.80
152;DHT22;68;48.792;9.164;2022-10-26T09:13:58;17.30;94.70
152;DHT22;68;48.792;9.164;2022-10-26T09:16:27;17.40;94.60
152;DHT22;68;48.792;9.164;2022-10-26T09:19:20;17.30;94.10
152;DHT22;68;48.792;9.164;2022-10-26T09:21:54;17.10;94.80
152;DHT22;68;48.792;9.164;2022-10-26T09:24:28;17.10;94.70
152;DHT22;68;48.792;9.164;2022-10-26T09:27:01;17.10;94.70
152;DHT22;68;48.792;9.164;2022-10-26T09:29:33;17.30;94.80
152;DHT22;68;48.792;9.164;2022-10-26T09:32:02;17.50;94.30
152;DHT22;68;48.792;9.164;2022-10-26T09:34:32;17.50;94.10
152;DHT22;68;48.792;9.164;2022-10-26T09:37:12;17.60;94.10
152;DHT22;68;48.792;9.164;2022-10-26T09:39:45;17.70;93.60
152;DHT22;68;48.792;9.164;2022-10-26T09:42:18;17.80;93.60
152;DHT22;68;48.792;9.164;2022-10-26T09:44:51;18.00;93.00
152;DHT22;68;48.792;9.164;2022-10-26T09:47:32;18.10;93.30
152;DHT22;68;48.792;9.164;2022-10-26T09:50:06;18.20;93.20
152;DHT22;68;48.792;9.164;2022-10-26T09:52:40;18.20;93.20
152;DHT22;68;48.792;9.164;2022-10-26T09:55:09;18.30;92.60
152;DHT22;68;48.792;9.164;2022-10-26T09:57:39;18.40;89.00
152;DHT22;68;48.792;9.164;2022-10-26T10:00:12;18.50;90.40
152;DHT22;68;48.792;9.164;2022-10-26T10:02:40;18.80;90.30
152;DHT22;68;48.792;9.164;2022-10-26T10:05:25;19.00;89.40
152;DHT22;68;48.792;9.164;2022-10-26T10:08:09;18.80;89.60
152;DHT22;68;48.792;9.164;2022-10-26T10:10:36;18.60;91.40
152;DHT22;68;48.792;9.164;2022-10-26T10:13:15;18.70;90.80
152;DHT22;68;48.792;9.164;2022-10-26T10:15:51;18.80;92.20
152;DHT22;68;48.792;9.164;2022-10-26T10:18:19;18.90;91.80
152;DHT22;68;48.792;9.164;2022-10-26T10:20:51;19.00;91.20
152;DHT22;68;48.792;9.164;2022-10-26T10:23:25;18.90;92.60
152;DHT22;68;48.792;9.164;2022-10-26T10:25:58;18.70;89.00
152;DHT22;68;48.792;9.164;2022-10-26T10:28:27;18.70;91.10
152;DHT22;68;48.792;9.164;2022-10-26T10:30:56;18.80;91.60
152;DHT22;68;48.792;9.164;2022-10-26T10:33:35;19.00;90.40
152;DHT22;68;48.792;9.164;2022-10-26T10:36:06;19.30;88.30
152;DHT22;68;48.792;9.164;2022-10-26T10:38:38;19.60;86.30
152;DHT22;68;48.792;9.164;2022-10-26T10:41:14;19.90;86.30
152;DHT22;68;48.792;9.164;2022-10-26T10:43:45;20.10;86.30
152;DHT22;68;48.792;9.164;2022-10-26T10:46:17;20.10;85.20
152;DHT22;68;48.792;9.164;2022-10-26T10:48:52;20.10;85.20
152;DHT22;68;48.792;9.164;2022-10-26T10:51:22;20.00;86.60
152;DHT22;68;48.792;9.164;2022-10-26T10:53:51;19.80;86.30
152;DHT22;68;48.792;9.164;2022-10-26T10:56:33;19.70;85.90
152;DHT22;68;48.792;9.164;2022-10-26T10:59:32;19.90;87.70
152;DHT22;68;48.792;9.164;2022-10-26T11:07:54;20.20;87.40
152;DHT22;68;48.792;9.164;2022-10-26T11:10:26;20.40;83.70
152;DHT22;68;48.792;9.164;2022-10-26T11:12:57;20.50;82.80
152;DHT22;68;48.792;9.164;2022-10-26T11:15:29;20.40;84.40
152;DHT22;68;48.792;9.164;2022-10-26T11:18:03;20.40;85.00
152;DHT22;68;48.792;9.164;2022-10-26T11:20:34;20.60;83.40
152;DHT22;68;48.792;9.164;2022-10-26T11:23:07;20.50;86.40
152;DHT22;68;48.792;9.164;2022-10-26T11:25:40;20.50;85.30
152;DHT22;68;48.792;9.164;2022-10-26T11:28:15;20.40;87.30
152;DHT22;68;48.792;9.164;2022-10-26T11:30:48;20.40;83.80
152;DHT22;68;48.792;9.164;2022-10-26T11:33:21;20.30;83.20
152;DHT22;68;48.792;9.164;2022-10-26T11:35:52;20.60;84.30
152;DHT22;68;48.792;9.164;2022-10-26T11:38:26;20.70;83.80
152;DHT22;68;48.792;9.164;2022-10-26T11:41:00;20.70;85.60
152;DHT22;68;48.792;9.164;2022-10-26T11:43:34;20.60;86.80
152;DHT22;68;48.792;9.164;2022-10-26T11:46:08;20.70;84.70
152;DHT22;68;48.792;9.164;2022-10-26T11:48:42;20.60;86.30
152;DHT22;68;48.792;9.164;2022-10-26T11:51:15;20.80;83.70
152;DHT22;68;48.792;9.164;2022-10-26T11:53:44;20.90;84.30
152;DHT22;68;48.792;9.164;2022-10-26T11:56:15;21.10;82.80
152;DHT22;68;48.792;9.164;2022-10-26T11:58:45;20.80;81.00
152;DHT22;68;48.792;9.164;2022-10-26T12:01:14;20.80;82.20
152;DHT22;68;48.792;9.164;2022-10-26T12:03:44;21.00;82.40
152;DHT22;68;48.792;9.164;2022-10-26T12:06:12;21.30;81.20
152;DHT22;68;48.792;9.164;2022-10-26T12:08:42;21.50;81.10
152;DHT22;68;48.792;9.164;2022-10-26T12:11:24;21.50;83.00
152;DHT22;68;48.792;9.164;2022-10-26T12:14:00;21.30;79.80
152;DHT22;68;48.792;9.164;2022-10-26T12:16:41;21.10;80.60
152;DHT22;68;48.792;9.164;2022-10-26T12:19:13;21.10;82.80
152;DHT22;68;48.792;9.164;2022-10-26T12:21:41;21.10;82.10
152;DHT22;68;48.792;9.164;2022-10-26T12:24:26;21.00;83.00
152;DHT22;68;48.792;9.164;2022-10-26T12:26:54;21.30;81.40
152;DHT22;68;48.792;9.164;2022-10-26T12:29:43;21.40;80.20
152;DHT22;68;48.792;9.164;2022-10-26T12:35:44;21.10;82.00
152;DHT22;68;48.792;9.164;2022-10-26T12:41:26;21.40;81.60
152;DHT22;68;48.792;9.164;2022-10-26T12:44:10;21.20;83.30
152;DHT22;68;48.792;9.164;2022-10-26T12:46:51;21.30;83.20
152;DHT22;68;48.792;9.164;2022-10-26T12:52:38;21.60;80.70
152;DHT22;68;48.792;9.164;2022-10-26T12:58:37;21.50;83.40
152;DHT22;68;48.792;9.164;2022-10-26T13:04:18;21.40;81.40
152;DHT22;68;48.792;9.164;2022-10-26T13:06:57;21.40;81.30
152;DHT22;68;48.792;9.164;2022-10-26T13:09:31;21.50;79.80
152;DHT22;68;48.792;9.164;2022-10-26T13:12:01;21.60;79.60
152;DHT22;68;48.792;9.164;2022-10-26T13:14:31;21.80;80.20
152;DHT22;68;48.792;9.164;2022-10-26T13:17:00;21.80;78.40
152;DHT22;68;48.792;9.164;2022-10-26T13:19:37;21.80;79.10
152;DHT22;68;48.792;9.164;2022-10-26T13:22:05;21.60;80.80
152;DHT22;68;48.792;9.164;2022-10-26T13:24:33;21.40;81.10
152;DHT22;68;48.792;9.164;2022-10-26T13:27:23;21.50;81.70
152;DHT22;68;48.792;9.164;2022-10-26T13:30:17;21.30;78.20
152;DHT22;68;48.792;9.164;2022-10-26T13:32:49;21.40;77.70
152;DHT22;68;48.792;9.164;2022-10-26T13:35:20;21.20;81.50
152;DHT22;68;48.792;9.164;2022-10-26T13:37:50;21.20;80.80
152;DHT22;68;48.792;9.164;2022-10-26T13:40:19;21.30;81.00
152;DHT22;68;48.792;9.164;2022-10-26T13:42:49;21.20;79.70
152;DHT22;68;48.792;9.164;2022-10-26T13:45:20;21.00;80.90
152;DHT22;68;48.792;9.164;2022-10-26T13:47:52;21.10;81.60
152;DHT22;68;48.792;9.164;2022-10-26T13:50:24;21.20;79.20
152;DHT22;68;48.792;9.164;2022-10-26T13:52:54;21.10;81.20
152;DHT22;68;48.792;9.164;2022-10-26T13:55:25;21.10;80.80
152;DHT22;68;48.792;9.164;2022-10-26T13:58:04;21.10;79.80
152;DHT22;68;48.792;9.164;2022-10-26T14:00:35;21.00;80.90
152;DHT22;68;48.792;9.164;2022-10-26T14:03:11;20.80;79.40
152;DHT22;68;48.792;9.164;2022-10-26T14:05:42;20.90;80.70
152;DHT22;68;48.792;9.164;2022-10-26T14:08:15;21.00;77.70
152;DHT22;68;48.792;9.164;2022-10-26T14:10:45;21.20;78.20
152;DHT22;68;48.792;9.164;2022-10-26T14:13:14;21.10;77.90
152;DHT22;68;48.792;9.164;2022-10-26T14:15:43;21.00;80.40
152;DHT22;68;48.792;9.164;2022-10-26T14:18:15;21.00;77.70
152;DHT22;68;48.792;9.164;2022-10-26T14:20:47;21.20;76.00
152;DHT22;68;48.792;9.164;2022-10-26T14:23:25;21.30;78.50
152;DHT22;68;48.792;9.164;2022-10-26T14:25:53;21.20;77.20
152;DHT22;68;48.792;9.164;2022-10-26T14:28:24;21.40;77.10
152;DHT22;68;48.792;9.164;2022-10-26T14:30:51;21.50;76.10
152;DHT22;68;48.792;9.164;2022-10-26T14:33:22;21.60;76.20
152;DHT22;68;48.792;9.164;2022-10-26T14:35:51;21.60;76.90
152;DHT22;68;48.792;9.164;2022-10-26T14:38:20;21.50;75.60
152;DHT22;68;48.792;9.164;2022-10-26T14:40:51;21.50;77.70
152;DHT22;68;48.792;9.164;2022-10-26T14:43:22;21.40;77.70
152;DHT22;68;48.792;9.164;2022-10-26T14:45:51;21.50;77.40
152;DHT22;68;48.792;9.164;2022-10-26T14:48:21;21.50;78.00
152;DHT22;68;48.792;9.164;2022-10-26T14:51:05;21.50;78.00
152;DHT22;68;48.792;9.164;2022-10-26T14:53:36;21.40;79.40
152;DHT22;68;48.792;9.164;2022-10-26T14:56:05;21.20;79.90
152;DHT22;68;48.792;9.164;2022-10-26T14:58:42;21.20;79.20
152;DHT22;68;48.792;9.164;2022-10-26T15:01:32;21.20;79.10
152;DHT22;68;48.792;9.164;2022-10-26T15:04:01;21.10;80.80
152;DHT22;68;48.792;9.164;2022-10-26T15:06:47;20.90;80.30
152;DHT22;68;48.792;9.164;2022-10-26T15:09:38;20.90;80.00
152;DHT22;68;48.792;9.164;2022-10-26T15:12:18;21.20;80.20
152;DHT22;68;48.792;9.164;2022-10-26T15:14:45;20.90;81.00
152;DHT22;68;48.792;9.164;2022-10-26T15:17:18;20.80;82.70
152;DHT22;68;48.792;9.164;2022-10-26T15:19:45;20.70;82.70
152;DHT22;68;48.792;9.164;2022-10-26T15:22:20;20.50;82.90
152;DHT22;68;48.792;9.164;2022-10-26T15:24:50;20.30;83.90
152;DHT22;68;48.792;9.164;2022-10-26T15:27:18;20.10;84.70
152;DHT22;68;48.792;9.164;2022-10-26T15:29:48;19.80;85.20
152;DHT22;68;48.792;9.164;2022-10-26T15:32:27;19.80;86.10
152;DHT22;68;48.792;9.164;2022-10-26T15:35:13;19.80;86.40
152;DHT22;68;48.792;9.164;2022-10-26T15:37:42;19.60;86.10
152;DHT22;68;48.792;9.164;2022-10-26T15:40:09;19.50;86.50
152;DHT22;68;48.792;9.164;2022-10-26T15:42:37;19.40;87.70
152;DHT22;68;48.792;9.164;2022-10-26T15:45:14;19.20;88.10
152;DHT22;68;48.792;9.164;2022-10-26T15:47:42;19.00;89.40
152;DHT22;68;48.792;9.164;2022-10-26T15:50:15;19.00;90.10
152;DHT22;68;48.792;9.164;2022-10-26T15:52:44;18.80;90.00
152;DHT22;68;48.792;9.164;2022-10-26T15:55:10;18.70;91.00
152;DHT22;68;48.792;9.164;2022-10-26T15:57:37;18.60;91.30
152;DHT22;68;48.792;9.164;2022-10-26T16:00:06;18.40;91.20
152;DHT22;68;48.792;9.164;2022-10-26T16:02:33;18.40;90.80
152;DHT22;68;48.792;9.164;2022-10-26T16:05:02;18.30;91.10
152;DHT22;68;48.792;9.164;2022-10-26T16:07:29;18.20;91.20
152;DHT22;68;48.792;9.164;2022-10-26T16:09:57;18.20;91.30
152;DHT22;68;48.792;9.164;2022-10-26T16:12:24;18.10;91.30
152;DHT22;68;48.792;9.164;2022-10-26T16:14:51;18.10;91.10
152;DHT22;68;48.792;9.164;2022-10-26T16:17:18;18.00;91.00
152;DHT22;68;48.792;9.164;2022-10-26T16:19:46;18.00;90.60
152;DHT22;68;48.792;9.164;2022-10-26T16:22:13;17.90;90.80
152;DHT22;68;48.792;9.164;2022-10-26T16:24:40;17.80;90.80
152;DHT22;68;48.792;9.164;2022-10-26T16:27:08;17.80;91.60
152;DHT22;68;48.792;9.164;2022-10-26T16:29:34;17.70;92.30
152;DHT22;68;48.792;9.164;2022-10-26T16:32:01;17.60;92.90
152;DHT22;68;48.792;9.164;2022-10-26T16:34:28;17.60;93.10
152;DHT22;68;48.792;9.164;2022-10-26T16:36:55;17.60;93.50
152;DHT22;68;48.792;9.164;2022-10-26T16:39:21;17.60;93.90
152;DHT22;68;48.792;9.164;2022-10-26T16:41:48;17.50;94.00
152;DHT22;68;48.792;9.164;2022-10-26T16:44:17;17.40;94.10
152;DHT22;68;48.792;9.164;2022-10-26T16:46:44;17.40;94.20
152;DHT22;68;48.792;9.164;2022-10-26T16:49:11;17.30;94.30
152;DHT22;68;48.792;9.164;2022-10-26T16:51:37;17.30;94.40
152;DHT22;68;48.792;9.164;2022-10-26T16:54:04;17.30;94.40
152;DHT22;68;48.792;9.164;2022-10-26T16:56:31;17.30;94.30
152;DHT22;68;48.792;9.164;2022-10-26T16:58:58;17.40;94.30
152;DHT22;68;48.792;9.164;2022-10-26T17:01:26;17.30;94.40
152;DHT22;68;48.792;9.164;2022-10-26T17:03:53;17.20;94.50
152;DHT22;68;48.792;9.164;2022-10-26T17:06:19;17.20;94.40
152;DHT22;68;48.792;9.164;2022-10-26T17:08:46;17.10;94.50
152;DHT22;68;48.792;9.164;2022-10-26T17:11:15;17.10;94.50
152;DHT22;68;48.792;9.164;2022-10-26T17:13:43;17.00;94.50
152;DHT22;68;48.792;9.164;2022-10-26T17:16:12;16.90;94.50
152;DHT22;68;48.792;9.164;2022-10-26T17:18:41;16.90;94.50
152;DHT22;68;48.792;9.164;2022-10-26T17:21:09;16.90;94.40
152;DHT22;68;48.792;9.164;2022-10-26T17:23:36;16.90;94.30
152;DHT22;68;48.792;9.164;2022-10-26T17:26:04;16.80;94.20
152;DHT22;68;48.792;9.164;2022-10-26T17:28:32;16.80;94.20
152;DHT22;68;48.792;9.164;2022-10-26T17:31:03;16.80;94.30
152;DHT22;68;48.792;9.164;2022-10-26T17:33:31;16.80;94.50
152;DHT22;68;48.792;9.164;2022-10-26T17:36:01;16.80;94.50
152;DHT22;68;48.792;9.164;2022-10-26T17:38:29;16.80;94.70
152;DHT22;68;48.792;9.164;2022-10-26T17:40:59;16.80;94.50